MDT,Max TemperatureF,Mean TemperatureF,Min TemperatureF,Max Dew PointF,MeanDew PointF,Min DewpointF,Max Humidity, Mean Humidity, Min Humidity, Max Sea Level PressureIn, Mean Sea Level PressureIn, Min Sea Level PressureIn, Max VisibilityMiles, Mean VisibilityMiles, Min VisibilityMiles, Max Wind SpeedMPH, Mean Wind SpeedMPH, Max Gust SpeedMPH,PrecipitationIn, CloudCover, Events, WindDirDegrees
2013-10-1,71,55,38,37,29,21,59,40,20,30.02,29.92,29.82,10,10,10,22,8,33,0.00,0,,201
2013-10-2,65,57,48,38,33,27,56,43,30,30.00,29.92,29.75,10,10,10,41,16,51,0.00,0,,14
2013-10-3,52,45,38,43,39,35,92,73,54,30.10,30.01,29.93,10,7,2,32,13,39,0.92,8,Rain-Thunderstorm,21
2013-10-4,37,34,32,36,32,30,100,95,89,30.13,30.06,29.98,4,2,0,41,33,51,0.75,8,Fog-Rain-Snow-Thunderstorm,353
2013-10-5,,,,,,,,,,,,,,,,,,,,,,
2013-10-6,,,,,,,,,,,,,,,,,,,,,,
2013-10-7,50,44,42,39,34,30,71,66,60,30.01,29.98,29.91,10,10,10,8,5,,0.00,0,,131
2013-10-8,57,57,57,34,34,34,41,37,40,29.77,29.76,29.75,10,10,10,13,12,,0.00,0,,180
2013-10-9,57,49,40,35,33,31,70,57,43,30.08,30.03,29.97,10,10,10,18,12,22,0.00,0,,333
2013-10-10,56,46,36,46,40,32,93,76,59,29.96,29.75,29.50,10,9,0,17,6,21,0.19,3,Fog-Rain,14
2013-10-11,53,46,39,46,39,28,92,71,50,30.01,29.56,29.35,10,6,0,55,26,64,0.55,6,Fog-Rain,323
2013-10-12,53,41,29,33,29,26,78,58,38,30.26,30.18,30.02,10,10,8,13,5,15,T,1,Rain,341
2013-10-13,58,45,32,43,37,29,89,70,51,30.27,30.17,30.00,10,10,10,15,7,25,T,3,,96
2013-10-14,46,40,33,43,37,30,100,88,76,30.16,29.95,29.85,10,6,1,43,28,53,1.53,8,Rain-Snow-Thunderstorm,335
2013-10-15,43,36,29,34,31,25,100,81,62,30.34,30.23,30.10,10,5,1,37,18,45,0.07,7,Snow,325
2013-10-16,56,41,26,31,26,21,81,54,27,30.22,30.07,29.99,10,10,10,18,6,22,0.00,0,,311
2013-10-17,45,37,29,34,28,23,85,67,49,30.22,30.13,30.01,10,10,10,32,15,39,0.00,5,,326
2013-10-18,44,36,28,32,28,23,89,69,49,30.20,30.12,29.97,10,10,9,26,10,31,T,7,,317
2013-10-19,63,48,33,35,31,27,79,55,30,29.96,29.86,29.77,10,10,10,26,7,32,0.00,4,,302
2013-10-20,53,44,35,38,35,32,85,65,45,30.09,29.96,29.77,10,10,5,31,15,37,0.04,6,Rain,328
2013-10-21,58,43,28,42,36,28,92,70,47,30.11,30.03,29.96,10,10,8,35,11,40,0.02,7,Rain,340
2013-10-22,53,47,40,41,37,32,89,69,48,30.12,30.09,30.01,10,10,10,21,8,24,T,7,Rain,338
2013-10-23,50,42,33,39,36,32,92,79,66,30.35,30.18,30.02,10,10,10,28,12,36,0.00,7,,3
2013-10-24,49,41,32,36,32,28,100,81,61,30.39,30.33,30.26,10,8,0,10,5,12,0.00,6,Fog,160
2013-10-25,70,50,29,42,35,27,92,59,26,30.24,30.13,30.02,10,10,10,25,9,32,0.00,0,,8
2013-10-26,58,44,30,33,29,26,78,57,36,30.33,30.19,30.00,10,10,10,16,5,20,0.00,0,,223
2013-10-27,65,50,34,38,31,28,82,57,31,30.18,29.95,29.82,10,10,10,21,10,25,0.00,2,,7
2013-10-28,34,30,26,28,25,23,100,88,75,30.41,30.30,30.18,10,6,0,17,10,20,0.10,8,Fog-Snow,60
2013-10-29,30,28,25,29,27,24,100,96,92,30.33,30.14,29.97,10,4,0,13,7,15,0.00,8,Fog,136
2013-10-30,36,33,29,34,30,28,100,95,89,30.03,29.89,29.76,10,5,0,18,4,22,0.04,8,Fog-Rain,151
2013-10-31,54,41,27,35,30,24,100,71,42,29.80,29.73,29.68,10,10,7,33,12,44,T,4,,315